Time;durP1;ratioP1;P1;durP2;ratioP2;P2;SDS_P1;SDS_P2;PMS_P1;PMS_P2;Temp;Humidity;BMP_temperature;BMP_pressure;BME280_temperature;BME280_humidity;BME280_pressure;Samples;Min_cycle;Max_cycle;Signal;HPM_P1;HPM_P2
2022/11/19 06:05:50;;;;;;;21.38;11.23;;;;;;;1.69;86.04;101272.00;4967043;28;20059;-75
2022/11/19 06:08:15;;;;;;;21.88;10.43;;;;;;;0.87;83.58;101278.25;4969188;28;20043;-75
2022/11/19 06:10:40;;;;;;;21.75;10.85;;;;;;;0.99;86.71;101273.91;4970092;28;20023;-76
2022/11/19 06:13:06;;;;;;;21.95;10.52;;;;;;;1.22;88.60;101274.00;5029413;23;20080;-76
2022/11/19 06:15:31;;;;;;;18.90;11.95;;;;;;;0.86;86.74;101280.19;4986743;28;20018;-76
2022/11/19 06:17:56;;;;;;;19.70;11.73;;;;;;;0.58;87.29;101288.38;4987815;28;20395;-76
2022/11/19 06:20:22;;;;;;;20.67;11.07;;;;;;;0.75;88.21;101287.00;4982074;28;20082;-75
2022/11/19 06:22:47;;;;;;;20.58;11.25;;;;;;;1.18;88.69;101284.03;4976225;28;20054;-77
2022/11/19 06:25:13;;;;;;;18.33;10.93;;;;;;;0.34;84.29;101301.44;4981877;28;20214;-76
2022/11/19 06:27:38;;;;;;;17.40;9.85;;;;;;;0.49;86.74;101298.44;4979776;28;20118;-76
2022/11/19 06:30:05;;;;;;;19.80;11.13;;;;;;;0.83;87.89;101305.59;4976998;28;20131;-75
2022/11/19 06:32:30;;;;;;;21.98;11.13;;;;;;;0.14;85.18;101305.28;4976353;28;20150;-76
2022/11/19 06:34:55;;;;;;;22.75;10.77;;;;;;;0.48;88.03;101302.28;4980293;28;20007;-75
2022/11/19 06:37:21;;;;;;;21.02;11.05;;;;;;;0.99;86.17;101314.41;4980427;28;20449;-74
2022/11/19 06:39:46;;;;;;;21.30;11.73;;;;;;;0.68;83.25;101309.44;4969317;28;20037;-75
2022/11/19 06:44:55;;;;;;;18.65;11.13;;;;;;;0.17;86.60;101315.72;4967823;28;20033;-76
2022/11/19 06:47:21;;;;;;;19.05;10.52;;;;;;;0.28;85.66;101317.22;4965380;28;20082;-75
2022/11/19 06:49:46;;;;;;;22.48;11.20;;;;;;;0.59;86.08;101317.56;4963450;28;20647;-76
2022/11/19 06:52:11;;;;;;;21.70;10.30;;;;;;;0.65;86.23;101321.03;4959509;28;20038;-76
2022/11/19 06:54:37;;;;;;;18.45;10.90;;;;;;;0.62;85.28;101326.34;4962001;28;20050;-77
2022/11/19 06:57:02;;;;;;;20.75;10.35;;;;;;;0.09;86.91;101330.97;4969848;28;20053;-76
2022/11/19 06:59:28;;;;;;;20.00;10.70;;;;;;;0.30;86.76;101331.50;4960992;28;20035;-76
2022/11/19 07:01:53;;;;;;;24.75;11.32;;;;;;;0.56;87.83;101331.09;4963259;28;20035;-76
2022/11/19 07:04:18;;;;;;;20.15;11.20;;;;;;;0.68;84.53;101330.66;4963424;28;20396;-76
2022/11/19 07:06:44;;;;;;;18.85;11.07;;;;;;;0.65;85.48;101332.06;4962117;28;20014;-77
2022/11/19 07:09:09;;;;;;;18.38;10.43;;;;;;;0.76;85.51;101340.97;4967369;28;20035;-76
2022/11/19 07:11:34;;;;;;;21.05;11.10;;;;;;;0.89;84.33;101336.66;4972691;28;20034;-75
2022/11/19 07:14:02;;;;;;;21.08;10.82;;;;;;;0.95;85.30;101352.81;4976726;28;20116;-75
2022/11/19 07:16:33;;;;;;;20.05;10.32;;;;;;;0.39;87.69;101345.41;4961167;28;20054;-77
2022/11/19 07:19:00;;;;;;;21.88;11.48;;;;;;;0.66;84.40;101344.72;4962091;28;20039;-74
2022/11/19 07:21:27;;;;;;;19.15;11.57;;;;;;;0.12;83.88;101338.63;4957532;28;20038;-77
2022/11/19 07:23:56;;;;;;;18.90;11.32;;;;;;;0.22;87.05;101356.13;4962443;28;20438;-75
2022/11/19 07:26:22;;;;;;;20.73;10.85;;;;;;;0.31;85.60;101355.16;4966928;28;20039;-76
2022/11/19 07:28:48;;;;;;;21.42;11.30;;;;;;;0.42;88.61;101360.50;4959437;28;20026;-75
2022/11/19 07:31:13;;;;;;;21.30;10.95;;;;;;;0.44;87.03;101356.34;4961811;28;20058;-75
2022/11/19 07:33:39;;;;;;;21.15;11.63;;;;;;;0.59;87.36;101367.16;4947655;28;20157;-75
2022/11/19 07:36:06;;;;;;;22.48;11.27;;;;;;;0.39;87.66;101361.94;4951726;28;20101;-75
2022/11/19 07:38:31;;;;;;;22.67;12.02;;;;;;;0.42;86.50;101366.84;4960724;28;20785;-75
2022/11/19 07:40:57;;;;;;;18.60;11.52;;;;;;;0.79;85.15;101365.19;4968414;28;20082;-75
2022/11/19 07:43:22;;;;;;;24.38;11.23;;;;;;;0.47;85.94;101366.78;4957982;28;20123;-76
2022/11/19 07:45:47;;;;;;;21.95;11.88;;;;;;;0.42;nan;101361.31;4952958;28;20019;-77
2022/11/19 07:48:13;;;;;;;26.27;12.50;;;;;;;0.29;85.84;101367.56;4954882;28;20031;-77
2022/11/19 07:50:39;;;;;;;21.60;11.57;;;;;;;0.51;86.00;101370.56;4962945;28;20055;-75
2022/11/19 07:53:09;;;;;;;23.83;11.88;;;;;;;0.39;84.31;101378.47;4965265;28;20031;-75
2022/11/19 07:55:35;;;;;;;27.08;13.27;;;;;;;0.29;86.65;101367.56;4952830;28;20027;-76
2022/11/19 07:58:01;;;;;;;23.27;12.68;;;;;;;0.10;84.68;101373.88;4953938;28;20043;-76
2022/11/19 08:00:26;;;;;;;23.25;12.77;;;;;;;0.32;85.58;101378.00;4949320;28;20070;-77
2022/11/19 08:02:52;;;;;;;26.38;13.57;;;;;;;-0.24;84.75;101374.84;4945870;28;20030;-76
2022/11/19 08:05:17;;;;;;;23.10;12.55;;;;;;;-0.17;87.20;101376.41;4947300;28;20572;-77
2022/11/19 08:07:42;;;;;;;19.95;11.63;;;;;;;0.07;84.83;101377.22;4944597;28;20035;-76
2022/11/19 08:10:09;;;;;;;23.13;11.43;;;;;;;-0.03;85.39;101389.16;4944172;28;20030;-76
2022/11/19 08:12:34;;;;;;;20.83;11.32;;;;;;;0.11;86.02;101394.78;4938992;28;20043;-77
2022/11/19 08:15:00;;;;;;;23.70;12.50;;;;;;;0.35;86.58;101397.50;4926633;28;21062;-76
2022/11/19 08:20:10;;;;;;;22.55;12.63;;;;;;;-0.12;84.30;101412.97;4947016;28;20050;-75
2022/11/19 08:22:36;;;;;;;20.30;10.77;;;;;;;0.38;84.56;101409.84;4944862;28;20099;-77
2022/11/19 08:25:02;;;;;;;22.58;11.70;;;;;;;0.04;86.75;101421.84;4942619;28;20118;-76
2022/11/19 08:27:28;;;;;;;22.73;11.60;;;;;;;0.17;85.89;101403.81;4940215;28;20034;-77
2022/11/19 08:29:54;;;;;;;22.25;12.48;;;;;;;0.33;83.84;101409.94;4947629;28;20065;-75
2022/11/19 08:32:19;;;;;;;25.35;12.73;;;;;;;0.24;87.38;101408.97;4948884;28;20054;-75
2022/11/19 08:34:44;;;;;;;22.35;12.38;;;;;;;0.14;84.53;101416.22;4960407;28;20043;-75
2022/11/19 08:37:12;;;;;;;19.35;10.05;;;;;;;0.38;83.64;101415.34;4963436;28;20073;-75
2022/11/19 08:39:38;;;;;;;21.95;11.40;;;;;;;0.38;84.87;101410.69;4957318;28;20046;-76
2022/11/19 08:44:54;;;;;;;26.55;12.43;;;;;;;0.71;85.14;101415.47;5073045;28;20040;-76
2022/11/19 08:47:20;;;;;;;23.52;12.25;;;;;;;1.36;83.89;101415.53;5078227;28;20029;-77
2022/11/19 08:49:45;;;;;;;21.02;10.68;;;;;;;1.67;81.96;101416.94;5079634;28;20033;-76
2022/11/19 08:52:13;;;;;;;23.25;11.48;;;;;;;1.71;80.90;101418.78;5082660;28;20025;-77
2022/11/19 08:54:38;;;;;;;23.40;12.50;;;;;;;1.65;81.59;101417.22;5075999;28;20025;-76
2022/11/19 08:57:03;;;;;;;22.13;11.35;;;;;;;1.85;80.17;101423.47;5065313;28;20092;-76
2022/11/19 08:59:29;;;;;;;19.17;11.15;;;;;;;1.79;81.02;101431.03;5066761;28;20032;-77
2022/11/19 09:01:54;;;;;;;17.38;10.45;;;;;;;1.75;80.32;101433.59;5071835;28;20032;-75
2022/11/19 09:04:19;;;;;;;18.45;10.63;;;;;;;1.65;78.45;101431.03;5067885;28;20082;-76
2022/11/19 09:06:45;;;;;;;22.30;12.32;;;;;;;1.74;78.84;101440.22;5070128;28;21358;-77
2022/11/19 09:09:10;;;;;;;18.27;10.57;;;;;;;1.58;77.81;101436.94;5072888;28;20120;-76
2022/11/19 09:11:36;;;;;;;17.05;9.77;;;;;;;1.76;80.15;101437.16;5068168;28;20022;-76
2022/11/19 09:14:01;;;;;;;19.55;9.68;;;;;;;1.61;76.88;101438.28;5073903;28;20067;-76
2022/11/19 09:16:26;;;;;;;17.92;10.50;;;;;;;1.71;79.18;101440.84;5067715;28;20025;-76
2022/11/19 09:18:52;;;;;;;22.10;10.23;;;;;;;2.08;82.91;101441.78;5069978;28;20055;-76
2022/11/19 09:21:18;;;;;;;20.95;10.52;;;;;;;1.65;78.46;101439.31;5084214;28;20745;-76
2022/11/19 09:23:43;;;;;;;17.83;10.75;;;;;;;1.15;77.81;101436.28;5078191;28;20047;-77
2022/11/19 09:26:16;;;;;;;19.13;9.90;;;;;;;1.19;77.85;101427.13;5064252;28;20461;-75
2022/11/19 09:28:42;;;;;;;20.80;10.52;;;;;;;1.65;79.43;101430.22;5067467;28;20025;-76
2022/11/19 09:31:18;;;;;;;16.95;10.23;;;;;;;1.83;80.02;101438.41;5063155;28;20021;-76
2022/11/19 09:33:48;;;;;;;17.98;11.43;;;;;;;2.02;80.45;101449.38;5068747;28;20059;-76
2022/11/19 09:36:14;;;;;;;19.40;10.18;;;;;;;1.34;78.03;101436.25;5062123;28;20035;-76
2022/11/19 09:38:40;;;;;;;18.48;11.00;;;;;;;1.62;80.50;101457.28;5067739;28;20106;-76
2022/11/19 09:41:46;;;;;;;18.08;10.38;;;;;;;1.79;80.15;101453.09;5057266;28;20037;-77
2022/11/19 09:44:33;;;;;;;18.02;10.18;;;;;;;1.24;77.11;101464.81;5059222;28;20078;-77
2022/11/19 09:47:24;;;;;;;19.35;10.60;;;;;;;1.55;80.64;101459.59;5056468;28;20653;-77
2022/11/19 09:49:58;;;;;;;23.48;10.77;;;;;;;1.51;77.37;101466.03;5058241;28;20175;-77
2022/11/19 09:52:27;;;;;;;20.00;10.60;;;;;;;1.81;79.23;101462.75;5049520;28;20097;-76
2022/11/19 09:54:55;;;;;;;17.17;9.80;;;;;;;1.68;77.06;101468.22;5043685;28;20029;-76
2022/11/19 09:57:30;;;;;;;25.80;11.30;;;;;;;1.88;78.19;101462.34;5046450;28;20124;-75
2022/11/19 09:59:59;;;;;;;16.30;10.05;;;;;;;2.05;77.91;101475.56;5048081;28;20025;-76
2022/11/19 10:02:25;;;;;;;17.67;9.38;;;;;;;2.02;78.17;101467.88;5045525;28;20033;-77
2022/11/19 10:04:51;;;;;;;17.70;9.80;;;;;;;1.90;77.97;101462.00;5051789;28;20070;-76
2022/11/19 10:07:42;;;;;;;20.02;10.60;;;;;;;1.78;78.75;101462.53;5040426;28;20034;-76
2022/11/19 10:10:34;;;;;;;21.02;11.05;;;;;;;1.91;77.94;101458.16;5036823;28;20091;-77
2022/11/19 10:13:25;;;;;;;19.42;10.02;;;;;;;1.96;77.95;101460.78;5038645;28;20040;-76
2022/11/19 10:16:13;;;;;;;17.98;10.38;;;;;;;1.84;74.62;101455.78;5043893;28;20506;-75
2022/11/19 10:18:57;;;;;;;13.55;8.52;;;;;;;1.72;74.46;101470.06;5035785;28;20048;-77
2022/11/19 10:21:48;;;;;;;17.15;10.85;;;;;;;1.88;77.48;101462.34;5036637;28;20037;-76
2022/11/19 10:24:38;;;;;;;17.38;9.20;;;;;;;1.99;77.47;101474.81;5042791;28;21998;-76
2022/11/19 10:27:16;;;;;;;20.83;10.45;;;;;;;1.38;74.44;101476.72;5043684;28;20102;-76
2022/11/19 10:29:42;;;;;;;17.80;9.45;;;;;;;1.28;77.74;101470.56;5042393;28;20037;-76
2022/11/19 10:32:31;;;;;;;16.52;10.85;;;;;;;1.04;75.89;101470.66;5042470;28;20064;-77
2022/11/19 10:35:02;;;;;;;21.42;10.07;;;;;;;1.07;77.09;101481.09;5040289;28;20505;-76
2022/11/19 10:37:37;;;;;;;14.90;9.07;;;;;;;1.10;76.83;101488.78;5039563;28;20124;-76
2022/11/19 10:40:11;;;;;;;16.42;9.63;;;;;;;1.09;76.52;101484.34;5041693;28;20391;-76
2022/11/19 10:42:41;;;;;;;18.50;8.93;;;;;;;1.17;75.81;101478.16;5041646;28;20135;-76
2022/11/19 10:45:22;;;;;;;16.35;8.98;;;;;;;1.19;78.43;101475.94;5035401;28;20032;-77
2022/11/19 10:48:09;;;;;;;17.15;9.45;;;;;;;1.14;76.82;101484.28;5033522;28;20040;-76
2022/11/19 10:50:35;;;;;;;14.77;9.05;;;;;;;1.01;72.91;101478.41;5053398;28;20067;-76
2022/11/19 10:53:22;;;;;;;13.93;8.88;;;;;;;0.99;74.56;101490.84;5040871;28;20028;-77
2022/11/19 10:55:52;;;;;;;14.13;7.47;;;;;;;1.00;75.02;101475.94;5040546;28;20044;-76
2022/11/19 10:58:24;;;;;;;17.70;8.65;;;;;;;1.15;73.77;101485.94;5040163;28;20052;-77
2022/11/19 11:00:53;;;;;;;14.90;8.17;;;;;;;1.34;75.90;101474.88;5040396;28;20021;-77
2022/11/19 11:03:26;;;;;;;13.15;7.63;;;;;;;1.17;71.25;101480.94;5037726;28;20309;-77
2022/11/19 11:06:04;;;;;;;17.55;7.70;;;;;;;1.19;72.27;101473.19;5048603;28;20021;-78
2022/11/19 11:08:30;;;;;;;14.00;7.43;;;;;;;1.34;71.77;101475.69;5040683;28;20451;-76
2022/11/19 11:10:55;;;;;;;14.43;8.25;;;;;;;1.19;73.27;101481.44;5039215;28;20600;-78
2022/11/19 11:16:19;;;;;;;12.07;7.72;;;;;;;1.21;74.42;101470.94;5038652;28;20459;-78
2022/11/19 11:18:44;;;;;;;11.00;7.10;;;;;;;1.28;72.08;101470.56;5036350;28;21390;-77
2022/11/19 11:21:35;;;;;;;10.57;7.32;;;;;;;1.28;71.78;101454.81;5039641;28;20135;-78
2022/11/19 11:24:03;;;;;;;10.68;6.68;;;;;;;1.34;73.13;101470.16;5033787;28;20040;-77
2022/11/19 11:26:32;;;;;;;11.15;6.45;;;;;;;1.40;73.99;101477.25;5036347;28;20021;-78
2022/11/19 11:29:13;;;;;;;10.23;6.53;;;;;;;1.41;70.71;101476.13;5037376;28;20028;-77
2022/11/19 11:31:43;;;;;;;12.95;8.02;;;;;;;1.35;74.09;101466.31;5037784;28;20056;-77
2022/11/19 11:34:27;;;;;;;12.40;6.68;;;;;;;1.25;69.32;101460.13;5040988;28;20032;-77
2022/11/19 11:36:54;;;;;;;10.63;6.82;;;;;;;1.50;71.62;101465.22;5038185;28;20036;-78
2022/11/19 11:39:26;;;;;;;13.60;7.15;;;;;;;1.53;72.13;101461.84;5040297;28;20028;-77
2022/11/19 11:41:53;;;;;;;12.05;6.80;;;;;;;1.60;71.01;101466.97;5038467;28;20041;-77
2022/11/19 11:44:22;;;;;;;10.93;6.40;;;;;;;1.34;70.46;101453.63;5042571;28;20640;-78
2022/11/19 11:46:47;;;;;;;12.57;6.97;;;;;;;1.74;73.09;101473.34;5038659;28;20384;-77
2022/11/19 11:49:41;;;;;;;10.82;6.22;;;;;;;1.39;69.67;101456.31;5039752;28;20035;-77
2022/11/19 11:52:10;;;;;;;10.52;6.55;;;;;;;1.54;69.93;101457.97;5041539;28;20037;-78
2022/11/19 11:54:36;;;;;;;12.65;6.35;;;;;;;1.36;67.98;101459.66;5042099;28;20032;-77
2022/11/19 11:57:17;;;;;;;10.30;6.65;;;;;;;1.38;69.27;101445.56;5057306;28;20545;-76
2022/11/19 11:59:42;;;;;;;10.52;5.68;;;;;;;2.62;97.96;101453.94;5056980;28;20480;-75
2022/11/19 12:02:34;;;;;;;9.75;6.18;;;;;;;1.77;67.65;101445.16;5049411;28;20035;-76
2022/11/19 12:05:06;;;;;;;16.23;6.93;;;;;;;1.73;70.08;101438.59;5051641;28;20037;-76
2022/11/19 12:07:37;;;;;;;9.13;5.25;;;;;;;1.85;68.23;101437.28;5051022;28;20059;-76
2022/11/19 12:10:45;;;;;;;11.38;6.45;;;;;;;1.69;67.81;101426.53;5055930;28;20064;-75
2022/11/19 12:13:45;;;;;;;13.10;7.18;;;;;;;1.51;67.31;101430.97;5040152;28;20033;-76
2022/11/19 12:16:41;;;;;;;12.48;6.47;;;;;;;1.59;70.51;101426.72;5051943;28;20656;-75
2022/11/19 12:19:25;;;;;;;11.38;6.40;;;;;;;1.71;71.20;101428.97;5045497;28;20064;-75
2022/11/19 12:21:59;;;;;;;9.95;5.63;;;;;;;1.72;68.77;101436.94;5047061;28;20056;-75
2022/11/19 12:24:28;;;;;;;9.90;5.97;;;;;;;1.63;67.49;101436.03;5053318;28;20027;-75
2022/11/19 12:27:08;;;;;;;8.45;5.45;;;;;;;1.61;66.62;101430.00;5045385;28;20029;-75
2022/11/19 12:29:48;;;;;;;11.13;6.03;;;;;;;1.64;68.19;101429.38;5056007;28;20041;-75
2022/11/19 12:32:26;;;;;;;10.07;6.05;;;;;;;1.58;66.90;101434.19;5049130;28;20021;-76
2022/11/19 12:35:15;;;;;;;11.93;6.50;;;;;;;1.74;67.75;101434.72;5048482;28;20021;-76
2022/11/19 12:37:59;;;;;;;9.07;5.97;;;;;;;1.65;66.90;101433.78;5046642;28;20037;-76
2022/11/19 12:40:57;;;;;;;10.13;5.90;;;;;;;1.87;70.69;101435.84;5055063;28;20140;-76
2022/11/19 12:43:48;;;;;;;8.43;5.22;;;;;;;1.82;68.74;101444.22;5052241;28;20136;-76
2022/11/19 12:46:27;;;;;;;7.93;5.32;;;;;;;1.76;68.40;101432.47;5054912;28;20037;-76
2022/11/19 12:49:15;;;;;;;8.43;5.28;;;;;;;1.75;68.09;101436.34;5051485;28;20497;-75
2022/11/19 12:51:51;;;;;;;8.65;5.15;;;;;;;1.67;67.07;101427.97;5056019;28;20084;-75
2022/11/19 12:54:46;;;;;;;9.90;5.80;;;;;;;1.73;66.76;101427.56;5060072;28;20023;-75
2022/11/19 12:57:24;;;;;;;9.18;6.57;;;;;;;1.87;68.54;101426.75;5058894;28;20506;-76
2022/11/19 13:00:01;;;;;;;8.55;5.13;;;;;;;1.67;64.29;101422.44;5060388;28;20056;-76
2022/11/19 13:02:39;;;;;;;6.72;4.63;;;;;;;1.72;67.73;101425.91;5057714;28;20063;-76
2022/11/19 13:05:18;;;;;;;8.07;5.47;;;;;;;1.77;67.81;101412.03;5054452;28;20100;-75
2022/11/19 13:08:12;;;;;;;9.23;5.03;;;;;;;1.80;67.56;101413.34;5051285;28;21338;-76
2022/11/19 13:10:42;;;;;;;11.90;5.88;;;;;;;1.78;66.34;101418.38;5045241;28;20039;-75
2022/11/19 13:13:17;;;;;;;11.30;5.18;;;;;;;1.79;66.20;101425.50;5058430;28;20064;-76
2022/11/19 13:15:56;;;;;;;10.63;5.20;;;;;;;1.77;66.47;101420.31;5049169;28;20069;-76
2022/11/19 13:18:26;;;;;;;11.65;6.40;;;;;;;1.90;66.48;101420.59;5045333;28;20444;-75
2022/11/19 13:21:00;;;;;;;10.55;5.80;;;;;;;1.86;68.84;101425.94;5047938;28;20056;-75
2022/11/19 13:23:32;;;;;;;8.30;5.20;;;;;;;2.17;67.87;101420.63;5042670;28;20035;-75
2022/11/19 13:25:59;;;;;;;16.60;5.65;;;;;;;2.11;67.15;101427.38;5042444;28;20644;-76
2022/11/19 13:28:39;;;;;;;9.40;5.45;;;;;;;2.35;68.22;101429.91;5044580;28;20086;-76
2022/11/19 13:31:12;;;;;;;12.52;5.95;;;;;;;2.87;70.47;101417.72;5040419;28;20018;-75
2022/11/19 13:33:55;;;;;;;12.23;5.63;;;;;;;2.73;70.13;101420.53;5041506;28;20060;-75
2022/11/19 13:36:34;;;;;;;12.48;5.28;;;;;;;2.51;68.98;101430.41;5049197;28;20033;-74
2022/11/19 13:39:25;;;;;;;8.93;4.90;;;;;;;2.43;69.48;101425.63;5041716;28;20166;-75
2022/11/19 13:44:37;;;;;;;9.60;6.15;;;;;;;2.42;67.85;101415.69;5051483;28;20111;-76
2022/11/19 13:47:12;;;;;;;6.85;5.60;;;;;;;2.49;71.48;101415.25;5044604;28;20052;-75
2022/11/19 13:49:45;;;;;;;8.00;5.03;;;;;;;2.37;70.42;101407.50;5049226;28;20025;-75
2022/11/19 13:52:33;;;;;;;7.45;5.13;;;;;;;2.12;66.81;101411.63;5045519;28;20127;-75
2022/11/19 13:54:59;;;;;;;8.70;5.22;;;;;;;2.12;68.95;101406.09;5044433;28;20040;-76
2022/11/19 13:57:29;;;;;;;8.07;6.00;;;;;;;2.53;70.04;101407.97;5048408;28;20064;-75
2022/11/19 14:00:00;;;;;;;10.02;5.63;;;;;;;2.44;70.49;101407.91;5046030;28;20049;-75
2022/11/19 14:02:56;;;;;;;10.45;6.18;;;;;;;2.54;72.05;101409.63;5044610;28;20025;-75
2022/11/19 14:05:30;;;;;;;8.85;5.50;;;;;;;2.52;71.44;101407.16;5046724;28;20091;-75
2022/11/19 14:08:19;;;;;;;8.38;5.20;;;;;;;2.40;70.47;101402.19;5044180;28;20411;-75
2022/11/19 14:11:20;;;;;;;6.70;4.45;;;;;;;2.21;69.18;101399.56;5044528;28;20027;-76
2022/11/19 14:14:03;;;;;;;7.07;4.72;;;;;;;2.43;71.39;101395.22;5043810;28;20071;-76
2022/11/19 14:28:42;;;;;;;10.50;5.43;;;;;;;2.47;69.36;101406.44;5031939;28;20415;-75
2022/11/19 14:31:08;;;;;;;12.80;5.82;;;;;;;2.58;72.13;101397.63;5047915;28;20472;-75
2022/11/19 14:34:01;;;;;;;10.25;5.65;;;;;;;2.66;71.43;101404.38;5045938;28;20033;-75
2022/11/19 14:36:29;;;;;;;10.15;5.50;;;;;;;2.53;72.77;101400.53;5047972;28;20041;-75
2022/11/19 14:38:59;;;;;;;10.05;5.57;;;;;;;2.62;73.54;101403.38;5047846;28;20029;-76
2022/11/19 14:41:32;;;;;;;12.30;7.35;;;;;;;2.48;73.24;101395.09;5036163;28;20037;-75
2022/11/19 14:44:08;;;;;;;10.25;5.93;;;;;;;2.57;73.94;101395.16;5046603;28;20377;-75
2022/11/19 14:46:46;;;;;;;11.88;6.65;;;;;;;2.54;74.38;101395.81;5045434;28;20037;-75
2022/11/19 14:49:31;;;;;;;13.50;7.28;;;;;;;2.63;73.72;101403.03;5048652;28;20452;-75
2022/11/19 14:51:58;;;;;;;11.45;7.43;;;;;;;2.54;74.24;101401.34;5049563;28;20028;-75
2022/11/19 14:54:30;;;;;;;10.93;7.40;;;;;;;2.59;74.48;101409.50;5047730;28;20029;-75
2022/11/19 14:57:13;;;;;;;11.57;6.38;;;;;;;2.62;73.26;101400.59;5047820;28;20033;-75
2022/11/19 14:59:46;;;;;;;8.02;5.78;;;;;;;2.57;73.92;101395.16;5044967;28;20033;-76
2022/11/19 15:02:38;;;;;;;11.70;7.00;;;;;;;2.47;72.52;101407.28;5035163;28;20044;-75
2022/11/19 15:05:27;;;;;;;10.70;6.25;;;;;;;2.24;74.91;101400.88;5038713;28;20048;-75
2022/11/19 15:08:17;;;;;;;9.95;6.28;;;;;;;2.39;74.49;101408.03;5038718;28;20082;-75
2022/11/19 15:11:00;;;;;;;10.15;6.20;;;;;;;2.34;74.74;101410.88;5031045;28;20033;-76
2022/11/19 15:13:28;;;;;;;11.85;6.18;;;;;;;2.43;73.65;101406.28;5042368;28;20029;-75
2022/11/19 15:15:57;;;;;;;10.75;6.30;;;;;;;2.44;74.89;101408.69;5041938;28;20032;-75
2022/11/19 15:18:31;;;;;;;10.82;6.03;;;;;;;2.45;74.54;101404.03;5044928;28;20025;-75
2022/11/19 15:21:34;;;;;;;10.98;6.57;;;;;;;2.42;75.04;101407.38;5045602;28;20112;-76
2022/11/19 15:24:42;;;;;;;12.38;8.05;;;;;;;2.37;75.54;101399.22;5034012;28;20039;-75
2022/11/19 15:27:58;;;;;;;23.73;12.32;;;;;;;2.38;75.38;101398.91;5044296;28;20419;-75
2022/11/19 15:30:51;;;;;;;24.60;12.07;;;;;;;2.35;75.36;101391.22;5041571;28;20206;-75
2022/11/19 15:33:25;;;;;;;25.67;11.77;;;;;;;2.34;75.63;101391.53;5032344;28;20090;-75
2022/11/19 15:36:03;;;;;;;19.13;9.68;;;;;;;2.32;75.73;101400.16;5047322;28;20108;-74
2022/11/19 15:38:53;;;;;;;15.85;9.10;;;;;;;2.29;76.47;101408.22;5049935;28;20535;-75
2022/11/19 15:41:23;;;;;;;18.20;10.40;;;;;;;2.27;76.18;101410.50;5039398;28;20128;-75
2022/11/19 15:43:52;;;;;;;14.95;9.65;;;;;;;2.22;76.36;101403.94;5048069;28;20071;-76
2022/11/19 15:46:29;;;;;;;13.98;8.52;;;;;;;2.19;76.80;101403.72;5046452;28;20090;-75
2022/11/19 15:49:15;;;;;;;18.08;9.77;;;;;;;2.14;76.58;101396.38;5047492;28;20029;-75
2022/11/19 15:52:10;;;;;;;12.68;9.10;;;;;;;2.16;76.38;101407.13;5046578;28;20036;-75
2022/11/19 15:54:37;;;;;;;16.42;9.77;;;;;;;2.11;76.52;101397.00;5035537;28;20044;-75
2022/11/19 15:57:13;;;;;;;21.27;11.25;;;;;;;1.94;79.17;101402.31;5046635;28;20048;-74
2022/11/19 15:59:39;;;;;;;20.17;10.07;;;;;;;2.48;77.75;101414.44;5034712;28;20051;-75
2022/11/19 16:02:17;;;;;;;23.25;10.60;;;;;;;2.21;78.27;101421.66;5046765;28;20028;-75
2022/11/19 16:04:42;;;;;;;15.60;10.50;;;;;;;2.14;78.57;101418.47;5036577;28;20033;-76
2022/11/19 16:07:09;;;;;;;15.50;8.98;;;;;;;2.11;78.78;101418.25;5036859;28;20036;-75
2022/11/19 16:09:35;;;;;;;14.52;7.75;;;;;;;2.05;78.94;101414.81;5034250;28;20089;-75
2022/11/19 16:17:44;;;;;;;14.70;8.15;;;;;;;2.03;78.94;101414.28;5036143;28;20775;-75
2022/11/19 16:20:10;;;;;;;16.45;9.55;;;;;;;2.46;79.17;101411.16;5036702;28;20059;-75
2022/11/19 16:22:42;;;;;;;12.88;8.07;;;;;;;2.17;79.01;101409.59;5039383;28;20021;-75
2022/11/19 16:25:25;;;;;;;16.25;9.48;;;;;;;2.93;78.81;101420.06;5035979;28;20436;-75
2022/11/19 16:27:55;;;;;;;19.13;10.05;;;;;;;2.23;78.42;101408.34;5036388;28;20435;-74
2022/11/19 16:30:24;;;;;;;22.80;8.90;;;;;;;1.99;78.93;101418.78;5042134;28;20092;-74
2022/11/19 16:32:50;;;;;;;17.40;10.50;;;;;;;1.94;79.97;101407.81;5036978;28;20446;-75
2022/11/19 16:35:21;;;;;;;15.23;9.98;;;;;;;1.87;79.99;101416.53;5034451;28;20372;-75
2022/11/19 16:37:47;;;;;;;17.17;10.38;;;;;;;1.84;79.52;101417.16;5038911;28;20480;-75
2022/11/19 16:40:14;;;;;;;13.23;9.00;;;;;;;1.85;80.35;101423.47;5037313;28;20567;-75
2022/11/19 16:42:43;;;;;;;15.90;9.05;;;;;;;1.78;80.23;101426.66;5037742;28;20072;-75
2022/11/19 16:45:20;;;;;;;13.73;9.52;;;;;;;1.79;80.79;101425.50;5036583;28;20369;-75
2022/11/19 16:47:57;;;;;;;14.18;9.18;;;;;;;1.76;80.58;101426.94;5030924;28;20025;-75
2022/11/19 16:50:34;;;;;;;17.20;9.65;;;;;;;1.80;81.14;101427.97;5037729;28;20061;-75
2022/11/19 16:53:02;;;;;;;15.18;8.30;;;;;;;1.78;80.28;101427.47;5034107;28;20512;-75
2022/11/19 16:55:32;;;;;;;15.30;9.27;;;;;;;1.72;80.27;101425.91;5035976;28;20036;-75
2022/11/19 16:58:09;;;;;;;17.38;9.43;;;;;;;1.79;80.64;101425.50;5032940;28;20079;-75
2022/11/19 17:00:36;;;;;;;15.10;8.60;;;;;;;1.69;80.65;101420.19;5037009;28;20021;-75
2022/11/19 17:03:26;;;;;;;11.23;7.80;;;;;;;1.70;80.63;101421.81;5037832;28;20579;-75
2022/11/19 17:05:52;;;;;;;14.00;9.82;;;;;;;1.68;80.35;101413.84;5030910;28;20102;-75
2022/11/19 17:08:32;;;;;;;14.07;9.35;;;;;;;1.66;80.21;101416.09;5038153;28;20106;-75
2022/11/19 17:14:39;;;;;;;14.32;9.43;;;;;;;1.63;81.38;101416.72;5040520;28;20441;-76
2022/11/19 17:17:22;;;;;;;14.75;8.88;;;;;;;1.61;81.27;101416.19;5042184;28;20400;-76
2022/11/19 17:19:48;;;;;;;17.40;10.13;;;;;;;1.60;81.38;101425.59;5041638;28;20518;-74
2022/11/19 17:22:20;;;;;;;18.00;11.65;;;;;;;1.57;80.91;101424.25;5039947;28;20029;-74
2022/11/19 17:24:46;;;;;;;16.25;8.90;;;;;;;1.59;81.08;101432.25;5041897;28;20080;-74
2022/11/19 17:27:28;;;;;;;18.63;10.25;;;;;;;1.45;81.46;101431.38;5039093;28;20063;-75
2022/11/19 17:30:01;;;;;;;19.48;11.38;;;;;;;1.69;81.48;101426.53;5037260;28;21927;-75
2022/11/19 17:32:55;;;;;;;16.77;10.25;;;;;;;1.56;81.15;101427.31;5031741;28;20025;-75
2022/11/19 17:35:47;;;;;;;15.95;9.90;;;;;;;1.53;81.97;101425.16;5031759;28;20157;-74
2022/11/19 17:38:20;;;;;;;16.38;10.25;;;;;;;1.51;81.70;101427.41;5036389;28;20092;-75
2022/11/19 17:40:48;;;;;;;18.20;10.32;;;;;;;1.49;81.56;101432.41;5035689;28;20512;-76
2022/11/19 17:46:02;;;;;;;14.77;9.73;;;;;;;1.45;81.88;101428.63;5037749;28;20039;-74
2022/11/19 17:48:28;;;;;;;12.68;9.13;;;;;;;1.41;82.00;101425.63;5034580;28;20021;-75
2022/11/19 17:50:54;;;;;;;16.65;10.13;;;;;;;1.37;82.08;101439.25;5037187;28;20033;-74
2022/11/19 17:53:20;;;;;;;17.35;10.85;;;;;;;1.34;81.49;101442.59;5039533;28;20103;-75
2022/11/19 17:55:48;;;;;;;20.90;11.60;;;;;;;1.36;82.45;101443.09;5033666;28;20411;-75
2022/11/19 17:58:14;;;;;;;23.27;12.80;;;;;;;1.37;81.74;101447.50;5036773;28;20048;-74
2022/11/19 18:00:39;;;;;;;50.15;22.38;;;;;;;1.38;82.00;101446.38;5031110;28;20546;-73
2022/11/19 18:03:05;;;;;;;50.75;25.13;;;;;;;1.33;82.35;101449.22;5031212;28;20067;-73
2022/11/19 18:05:35;;;;;;;54.88;25.92;;;;;;;1.34;82.14;101453.63;5039992;28;20108;-73
2022/11/19 18:08:00;;;;;;;52.40;25.60;;;;;;;1.33;81.87;101453.91;5036302;28;20488;-73
2022/11/19 18:10:26;;;;;;;47.40;23.45;;;;;;;1.32;81.63;101449.53;5031489;28;20021;-73
2022/11/19 18:12:51;;;;;;;41.40;23.75;;;;;;;1.32;81.62;101450.34;5034721;28;20033;-74
2022/11/19 18:15:18;;;;;;;43.65;24.60;;;;;;;1.30;81.93;101451.78;5035017;28;20502;-74
2022/11/19 18:17:44;;;;;;;36.55;22.08;;;;;;;1.25;81.99;101443.59;5027992;28;20037;-74
2022/11/19 18:20:10;;;;;;;38.28;20.80;;;;;;;1.25;82.56;101446.34;5035230;28;20096;-73
2022/11/19 18:22:36;;;;;;;41.25;22.40;;;;;;;1.25;81.90;101449.09;5035894;28;20087;-73
2022/11/19 18:25:12;;;;;;;37.72;19.80;;;;;;;1.23;82.40;101457.66;5034000;28;20035;-73
2022/11/19 18:27:37;;;;;;;34.90;20.75;;;;;;;1.26;82.18;101461.75;5030349;28;20033;-74
2022/11/19 18:30:03;;;;;;;29.70;18.50;;;;;;;1.19;82.32;101453.88;5028560;28;20040;-73
2022/11/19 18:32:28;;;;;;;30.70;17.98;;;;;;;1.19;82.33;101459.38;5042633;28;20020;-73